Time;durP1;ratioP1;P1;durP2;ratioP2;P2;SDS_P1;SDS_P2;PMS_P1;PMS_P2;Temp;Humidity;BMP_temperature;BMP_pressure;BME280_temperature;BME280_humidity;BME280_pressure;Samples;Min_cycle;Max_cycle;Signal;HPM_P1;HPM_P2
2021/12/19 00:00:31;;;;;;;11.20;4.70;;;6.70;97.30;;;;;;4985076;28;20524;-84
2021/12/19 00:11:09;;;;;;;9.43;4.37;;;6.80;97.30;;;;;;4962766;28;20456;-86
2021/12/19 00:13:35;;;;;;;15.43;5.40;;;6.80;97.30;;;;;;4950173;28;20462;-86
2021/12/19 00:16:00;;;;;;;12.00;5.00;;;6.90;97.30;;;;;;4942330;28;20215;-86
2021/12/19 00:18:26;;;;;;;7.90;4.00;;;6.90;97.30;;;;;;4955179;28;20218;-85
2021/12/19 00:20:51;;;;;;;15.13;5.07;;;6.90;97.30;;;;;;4942006;29;20202;-85
2021/12/19 00:23:17;;;;;;;15.83;4.70;;;6.90;97.30;;;;;;4948770;28;20689;-85
2021/12/19 00:25:43;;;;;;;9.60;4.50;;;6.90;97.30;;;;;;4950596;28;20210;-85
2021/12/19 00:28:09;;;;;;;10.93;4.80;;;6.90;97.30;;;;;;4953109;28;20220;-85
2021/12/19 00:30:34;;;;;;;11.07;4.13;;;6.90;97.30;;;;;;4948559;28;20236;-85
2021/12/19 00:33:00;;;;;;;10.17;4.60;;;6.80;97.30;;;;;;4951907;28;21080;-85
2021/12/19 00:35:26;;;;;;;8.97;4.60;;;6.80;97.30;;;;;;4947691;28;20174;-84
2021/12/19 00:37:53;;;;;;;11.20;5.33;;;6.80;97.30;;;;;;4949250;28;20190;-83
2021/12/19 00:40:20;;;;;;;15.10;5.33;;;6.80;97.30;;;;;;4959971;28;20437;-85
2021/12/19 00:42:52;;;;;;;10.60;4.80;;;6.80;97.30;;;;;;4949365;28;20484;-85
2021/12/19 00:45:30;;;;;;;11.37;4.40;;;6.80;97.30;;;;;;4940202;28;20444;-84
2021/12/19 00:47:56;;;;;;;18.50;5.70;;;6.80;97.30;;;;;;4954307;28;20469;-83
2021/12/19 00:50:21;;;;;;;11.70;5.40;;;6.80;97.30;;;;;;4940662;28;20441;-85
2021/12/19 00:52:47;;;;;;;13.93;5.40;;;6.80;97.30;;;;;;4942323;29;20179;-84
2021/12/19 00:55:14;;;;;;;11.23;4.73;;;6.80;97.30;;;;;;4949320;28;20186;-85
2021/12/19 00:57:40;;;;;;;12.97;5.50;;;6.80;97.30;;;;;;4938575;28;20183;-86
2021/12/19 01:00:08;;;;;;;10.50;5.50;;;6.80;97.30;;;;;;4947901;28;20421;-85
2021/12/19 01:02:34;;;;;;;13.27;5.63;;;6.90;97.30;;;;;;4946834;28;20230;-85
2021/12/19 01:05:00;;;;;;;11.77;6.10;;;6.90;97.30;;;;;;4963231;28;20430;-85
2021/12/19 01:07:26;;;;;;;14.90;6.53;;;7.00;97.30;;;;;;4952030;28;20633;-84
2021/12/19 01:09:52;;;;;;;12.13;6.07;;;7.10;97.30;;;;;;4980238;28;20446;-85
2021/12/19 01:12:18;;;;;;;12.53;5.80;;;7.10;97.30;;;;;;4969681;28;20673;-85
2021/12/19 01:14:43;;;;;;;10.60;6.30;;;7.20;97.30;;;;;;4961876;28;20441;-85
2021/12/19 01:17:09;;;;;;;18.13;5.20;;;7.20;97.30;;;;;;4958279;28;20347;-85
2021/12/19 01:19:35;;;;;;;11.37;5.23;;;7.20;97.30;;;;;;4966588;28;20560;-85
2021/12/19 01:22:02;;;;;;;11.43;5.77;;;7.20;97.30;;;;;;4968657;28;20317;-85
2021/12/19 01:24:27;;;;;;;13.80;5.20;;;7.20;97.30;;;;;;4962932;28;20983;-85
2021/12/19 01:26:52;;;;;;;11.90;4.87;;;7.20;97.30;;;;;;4966675;28;20568;-85
2021/12/19 01:29:18;;;;;;;14.00;5.87;;;7.10;97.30;;;;;;4970791;28;20281;-85
2021/12/19 01:31:44;;;;;;;9.20;4.53;;;7.10;97.30;;;;;;4973016;28;20299;-85
2021/12/19 01:34:12;;;;;;;13.73;5.67;;;7.00;97.30;;;;;;4971138;28;20725;-85
2021/12/19 01:36:40;;;;;;;14.33;5.13;;;7.00;97.30;;;;;;4963841;28;20198;-85
2021/12/19 01:39:06;;;;;;;9.30;5.50;;;7.00;97.30;;;;;;4969314;28;20476;-85
2021/12/19 01:41:32;;;;;;;8.47;4.53;;;7.00;97.30;;;;;;4964513;28;20537;-86
2021/12/19 01:43:57;;;;;;;11.10;5.23;;;7.00;97.30;;;;;;4960653;28;20530;-86
2021/12/19 01:46:23;;;;;;;11.77;4.30;;;7.00;97.30;;;;;;4966915;28;20254;-85
2021/12/19 01:48:48;;;;;;;10.57;4.83;;;7.00;97.30;;;;;;4967359;28;20178;-85
2021/12/19 01:51:14;;;;;;;8.73;4.80;;;7.00;97.30;;;;;;4962028;28;20207;-86
2021/12/19 01:53:39;;;;;;;12.33;4.50;;;7.00;97.30;;;;;;4969640;28;20183;-85
2021/12/19 01:56:07;;;;;;;10.47;4.47;;;7.00;97.30;;;;;;4967885;28;20432;-85
2021/12/19 01:58:33;;;;;;;10.70;4.20;;;7.00;97.30;;;;;;4951601;28;20411;-85
2021/12/19 02:00:59;;;;;;;16.07;4.60;;;7.00;97.30;;;;;;4967511;28;20465;-86
2021/12/19 02:03:25;;;;;;;8.70;3.87;;;7.00;97.30;;;;;;4985941;28;20421;-86
2021/12/19 02:05:51;;;;;;;7.40;3.00;;;7.00;97.30;;;;;;4969682;28;20685;-86
2021/12/19 02:08:18;;;;;;;6.63;3.23;;;7.00;97.30;;;;;;4982841;28;20500;-84
2021/12/19 02:10:47;;;;;;;7.07;3.63;;;7.10;97.30;;;;;;4989225;28;20213;-86
2021/12/19 02:13:15;;;;;;;7.83;4.13;;;7.10;97.30;;;;;;4973732;28;20465;-85
2021/12/19 02:15:42;;;;;;;10.10;3.50;;;7.10;97.30;;;;;;4969762;28;20461;-84
2021/12/19 02:18:17;;;;;;;8.10;3.80;;;7.10;97.30;;;;;;4986629;28;20476;-85
2021/12/19 02:20:54;;;;;;;6.40;3.30;;;7.10;97.30;;;;;;4966258;28;20531;-85
2021/12/19 02:23:22;;;;;;;6.30;3.80;;;7.10;97.30;;;;;;4966794;28;20433;-85
2021/12/19 02:25:48;;;;;;;16.53;3.83;;;7.10;97.30;;;;;;4974221;28;20463;-85
2021/12/19 02:28:14;;;;;;;10.43;3.10;;;7.10;97.30;;;;;;4969119;28;20444;-86
2021/12/19 02:30:40;;;;;;;7.90;3.33;;;7.00;97.30;;;;;;4981919;28;20882;-85
2021/12/19 02:33:13;;;;;;;8.53;4.23;;;7.00;97.30;;;;;;4977782;28;20433;-85
2021/12/19 02:35:41;;;;;;;9.20;4.03;;;7.00;97.30;;;;;;4978396;28;20441;-86
2021/12/19 02:38:38;;;;;;;12.00;4.07;;;6.90;97.30;;;;;;4971110;28;21066;-87
2021/12/19 02:49:35;;;;;;;9.77;4.80;;;6.80;97.30;;;;;;4990841;28;20478;-86
2021/12/19 02:52:03;;;;;;;7.83;3.80;;;6.80;97.30;;;;;;4973933;28;20462;-85
2021/12/19 02:54:29;;;;;;;10.70;3.70;;;6.80;97.30;;;;;;4972191;28;20432;-84
2021/12/19 02:56:55;;;;;;;9.00;4.53;;;6.80;97.30;;;;;;4966410;28;20421;-86
2021/12/19 02:59:21;;;;;;;14.93;5.30;;;6.80;97.30;;;;;;4968602;28;20437;-85
2021/12/19 03:01:47;;;;;;;9.67;4.37;;;6.80;97.30;;;;;;4974579;28;20634;-84
2021/12/19 03:04:14;;;;;;;12.83;4.80;;;6.80;97.30;;;;;;4969691;28;20193;-86
2021/12/19 03:06:44;;;;;;;10.60;4.53;;;6.80;97.30;;;;;;4977587;28;20472;-85
2021/12/19 03:09:11;;;;;;;10.40;4.07;;;6.70;97.30;;;;;;4973105;28;20861;-85
2021/12/19 03:12:02;;;;;;;8.37;4.00;;;6.70;97.30;;;;;;4963584;28;20528;-85
2021/12/19 03:19:50;;;;;;;15.40;5.00;;;6.70;97.30;;;;;;4992320;28;20515;-85
2021/12/19 03:22:15;;;;;;;9.20;4.80;;;6.70;97.30;;;;;;4967068;28;20457;-85
2021/12/19 03:24:41;;;;;;;9.60;4.73;;;6.70;97.30;;;;;;4970074;28;20214;-85
2021/12/19 03:27:06;;;;;;;10.50;4.47;;;6.70;97.30;;;;;;4969162;28;20284;-86
2021/12/19 03:29:32;;;;;;;12.17;4.93;;;6.60;97.30;;;;;;4972566;28;20362;-85
2021/12/19 03:31:58;;;;;;;10.13;4.37;;;6.60;97.30;;;;;;4957085;28;20203;-86
2021/12/19 03:34:23;;;;;;;12.13;5.00;;;6.60;97.30;;;;;;4969033;28;20432;-84
2021/12/19 03:36:49;;;;;;;15.10;4.67;;;6.60;97.30;;;;;;4968208;28;20178;-87
2021/12/19 03:39:24;;;;;;;9.40;5.37;;;6.60;97.30;;;;;;4987558;28;20252;-87
2021/12/19 03:41:50;;;;;;;14.87;4.77;;;6.50;97.30;;;;;;4972959;28;20205;-86
2021/12/19 03:44:15;;;;;;;7.20;3.53;;;6.50;97.30;;;;;;4988143;28;20608;-84
2021/12/19 03:46:41;;;;;;;10.90;3.77;;;6.50;97.30;;;;;;4970058;28;20281;-85
2021/12/19 03:49:06;;;;;;;7.60;3.53;;;6.50;97.30;;;;;;4969933;28;20178;-83
2021/12/19 03:51:32;;;;;;;8.27;3.90;;;6.40;97.30;;;;;;4995657;28;20315;-83
2021/12/19 03:53:58;;;;;;;13.10;3.87;;;6.40;97.30;;;;;;4968259;28;20268;-85
2021/12/19 03:56:23;;;;;;;9.70;4.70;;;6.40;97.30;;;;;;4968040;28;20184;-84
2021/12/19 03:58:51;;;;;;;6.97;4.00;;;6.40;97.30;;;;;;4992802;28;20218;-84
2021/12/19 04:01:17;;;;;;;29.67;5.00;;;6.40;97.30;;;;;;4975336;28;20245;-83
2021/12/19 04:03:45;;;;;;;7.30;4.27;;;6.40;97.30;;;;;;4971047;28;20425;-84
2021/12/19 04:06:11;;;;;;;9.63;4.20;;;6.40;97.30;;;;;;4958854;28;20466;-86
2021/12/19 04:08:36;;;;;;;7.50;3.40;;;6.30;97.30;;;;;;4956433;28;20477;-84
2021/12/19 04:11:02;;;;;;;7.73;3.57;;;6.30;97.30;;;;;;4951318;28;20433;-84
2021/12/19 04:13:27;;;;;;;14.43;4.90;;;6.30;97.30;;;;;;4942712;28;20183;-86
2021/12/19 04:15:53;;;;;;;8.83;3.30;;;6.30;97.30;;;;;;4944120;29;20175;-84
2021/12/19 04:18:19;;;;;;;11.67;4.70;;;6.30;97.30;;;;;;4944818;28;20573;-86
2021/12/19 04:20:45;;;;;;;6.20;3.20;;;6.30;97.30;;;;;;4966656;28;20684;-86
2021/12/19 04:23:10;;;;;;;6.40;4.00;;;6.30;97.30;;;;;;4948764;28;20448;-84
2021/12/19 04:25:36;;;;;;;8.90;4.20;;;6.30;97.30;;;;;;4941148;29;20285;-85
2021/12/19 04:28:02;;;;;;;15.40;4.60;;;6.20;97.30;;;;;;4952119;28;20189;-83
2021/12/19 04:30:27;;;;;;;10.80;3.97;;;6.20;97.30;;;;;;4967855;28;20198;-86
2021/12/19 04:33:01;;;;;;;10.97;4.20;;;6.20;97.30;;;;;;4950053;28;20265;-84
2021/12/19 04:35:31;;;;;;;12.10;4.83;;;6.20;97.30;;;;;;4949196;29;20238;-86
2021/12/19 04:52:05;;;;;;;12.33;4.90;;;6.00;97.30;;;;;;4963348;28;20513;-83
2021/12/19 04:54:32;;;;;;;11.83;5.70;;;6.00;97.30;;;;;;4962901;28;20431;-84
2021/12/19 05:02:43;;;;;;;12.60;4.80;;;6.00;97.30;;;;;;4944096;28;20482;-85
2021/12/19 05:16:00;;;;;;;12.30;5.13;;;5.90;97.30;;;;;;4966697;28;20416;-85
2021/12/19 05:18:29;;;;;;;10.63;5.10;;;5.90;97.30;;;;;;4945348;28;20438;-84
2021/12/19 05:20:56;;;;;;;15.87;5.07;;;5.90;97.30;;;;;;4949105;28;20214;-85
2021/12/19 05:24:20;;;;;;;8.90;4.63;;;5.90;97.30;;;;;;4949477;28;20414;-85
2021/12/19 05:26:11;;;;;;;12.43;5.00;;;5.80;97.30;;;;;;4956438;28;20541;-84
2021/12/19 05:28:36;;;;;;;6.80;4.27;;;5.90;97.30;;;;;;4950250;28;20555;-85
2021/12/19 05:31:02;;;;;;;10.67;4.67;;;5.90;97.30;;;;;;4942068;29;20203;-86
2021/12/19 05:33:28;;;;;;;13.23;5.23;;;5.90;97.30;;;;;;4941841;29;20179;-86
2021/12/19 05:46:43;;;;;;;12.07;5.20;;;6.00;97.30;;;;;;4971560;28;20476;-85
2021/12/19 05:49:09;;;;;;;19.43;4.90;;;6.00;97.30;;;;;;4954546;28;20430;-83
2021/12/19 05:51:36;;;;;;;8.53;4.90;;;6.00;97.30;;;;;;4962964;28;20266;-86
2021/12/19 05:54:03;;;;;;;10.30;4.40;;;6.10;97.30;;;;;;4947945;29;20922;-85
2021/12/19 05:56:28;;;;;;;7.63;3.83;;;6.10;97.30;;;;;;4947789;28;20492;-86
2021/12/19 05:58:55;;;;;;;8.33;4.57;;;6.10;97.30;;;;;;4952807;28;20446;-86
2021/12/19 06:01:21;;;;;;;8.73;4.53;;;6.10;97.30;;;;;;4951994;28;20283;-86
2021/12/19 06:03:46;;;;;;;9.03;4.03;;;6.10;97.30;;;;;;4977099;28;20449;-86
2021/12/19 06:06:12;;;;;;;9.03;4.00;;;6.10;97.30;;;;;;4971494;28;20222;-86
2021/12/19 06:08:37;;;;;;;7.60;4.00;;;6.10;97.30;;;;;;4979046;28;20193;-86
2021/12/19 06:11:03;;;;;;;10.63;4.70;;;6.10;97.30;;;;;;4983550;28;20199;-85
2021/12/19 06:13:28;;;;;;;9.47;4.17;;;6.10;97.30;;;;;;4940703;28;20641;-85
2021/12/19 06:15:56;;;;;;;9.20;4.10;;;6.20;97.30;;;;;;4985711;28;20186;-86
2021/12/19 06:18:22;;;;;;;10.00;4.17;;;6.10;97.30;;;;;;4962940;28;20193;-85
2021/12/19 06:20:47;;;;;;;10.13;4.20;;;6.10;97.30;;;;;;4979872;28;20461;-85
2021/12/19 06:23:13;;;;;;;8.70;3.83;;;6.20;97.30;;;;;;4968763;28;20190;-84
2021/12/19 06:25:45;;;;;;;7.97;3.60;;;6.10;97.30;;;;;;4949111;28;20617;-85
2021/12/19 06:28:21;;;;;;;10.83;4.83;;;6.20;97.30;;;;;;4962526;28;20183;-85
2021/12/19 06:30:47;;;;;;;9.40;3.97;;;6.10;97.30;;;;;;4971822;28;20453;-86
2021/12/19 06:33:13;;;;;;;10.27;4.03;;;6.20;97.30;;;;;;4946237;29;20506;-86
2021/12/19 06:35:38;;;;;;;8.67;4.00;;;6.10;97.30;;;;;;4971529;28;20639;-86
2021/12/19 06:38:06;;;;;;;9.77;3.40;;;6.10;97.30;;;;;;4964717;28;20438;-85
2021/12/19 06:40:32;;;;;;;9.40;4.30;;;6.10;97.30;;;;;;4971538;28;20206;-85
2021/12/19 06:42:58;;;;;;;6.77;3.87;;;6.10;97.30;;;;;;4951386;28;20442;-86
2021/12/19 06:45:23;;;;;;;8.83;4.53;;;6.10;97.30;;;;;;4955599;28;20838;-85
2021/12/19 06:47:50;;;;;;;10.50;4.73;;;6.10;97.30;;;;;;4952864;28;20212;-84
2021/12/19 06:50:17;;;;;;;6.53;3.50;;;6.10;97.30;;;;;;4970180;28;20233;-86
2021/12/19 06:52:44;;;;;;;13.00;5.07;;;6.10;97.30;;;;;;4969873;28;20433;-85
2021/12/19 06:55:13;;;;;;;7.83;3.77;;;6.10;97.30;;;;;;4958945;28;20497;-85
2021/12/19 06:57:38;;;;;;;8.70;3.70;;;6.10;97.30;;;;;;4958009;28;20449;-86
2021/12/19 07:00:08;;;;;;;11.47;4.60;;;6.10;97.30;;;;;;4971300;28;20778;-86
2021/12/19 07:02:34;;;;;;;7.20;3.53;;;6.20;97.30;;;;;;4968656;28;20245;-85
2021/12/19 07:04:59;;;;;;;9.63;4.77;;;6.20;97.30;;;;;;4970387;28;20941;-84
2021/12/19 07:07:25;;;;;;;7.60;3.80;;;6.20;97.30;;;;;;4983393;28;20481;-85
2021/12/19 07:09:50;;;;;;;10.37;4.07;;;6.10;97.30;;;;;;4971141;28;20258;-83
2021/12/19 07:12:17;;;;;;;12.10;4.90;;;6.20;97.30;;;;;;4977504;28;20233;-86
2021/12/19 07:14:43;;;;;;;10.77;4.23;;;6.20;97.30;;;;;;4966737;28;20428;-85
2021/12/19 07:17:10;;;;;;;10.70;3.97;;;6.20;97.30;;;;;;4974951;28;20956;-86
2021/12/19 07:19:36;;;;;;;13.50;4.70;;;6.20;97.30;;;;;;4969266;28;20524;-86
2021/12/19 07:22:01;;;;;;;10.93;4.37;;;6.20;97.30;;;;;;4959398;28;20489;-86
2021/12/19 07:24:27;;;;;;;13.27;4.63;;;6.20;97.30;;;;;;4975559;28;20303;-85
2021/12/19 07:26:52;;;;;;;7.07;3.43;;;6.20;97.30;;;;;;4974755;28;20271;-85
2021/12/19 07:29:18;;;;;;;9.17;4.50;;;6.20;97.30;;;;;;4957723;28;20209;-85
2021/12/19 07:31:44;;;;;;;9.27;3.70;;;6.20;97.30;;;;;;4951783;28;20213;-86
2021/12/19 07:34:10;;;;;;;9.30;4.00;;;6.20;97.30;;;;;;4976777;28;20182;-85
2021/12/19 07:36:48;;;;;;;8.80;5.10;;;6.20;97.30;;;;;;4954798;28;20445;-86
2021/12/19 07:39:27;;;;;;;12.03;5.03;;;6.20;97.30;;;;;;4963308;28;20613;-85
2021/12/19 07:41:53;;;;;;;8.23;4.10;;;6.20;97.30;;;;;;4975239;28;20446;-86
2021/12/19 07:44:19;;;;;;;11.60;5.37;;;6.10;97.30;;;;;;4953930;28;20450;-86
2021/12/19 07:46:45;;;;;;;9.97;4.43;;;6.10;97.30;;;;;;4967852;28;20233;-85
2021/12/19 07:49:12;;;;;;;10.00;4.07;;;6.10;97.30;;;;;;4967879;28;20945;-86
2021/12/19 07:51:37;;;;;;;10.23;4.83;;;6.10;97.30;;;;;;4957178;28;20222;-83
2021/12/19 07:54:03;;;;;;;11.50;5.10;;;6.20;97.30;;;;;;4978400;28;20446;-86
2021/12/19 07:56:28;;;;;;;10.93;4.80;;;6.20;97.30;;;;;;4962691;28;20182;-84
2021/12/19 07:58:54;;;;;;;12.77;4.73;;;6.20;97.30;;;;;;4973825;28;20269;-86
2021/12/19 08:01:20;;;;;;;13.00;5.10;;;6.20;97.30;;;;;;4976206;28;20268;-86
2021/12/19 08:03:45;;;;;;;11.97;5.47;;;6.20;97.30;;;;;;4967909;28;20181;-85
2021/12/19 08:06:11;;;;;;;11.03;3.90;;;6.20;97.30;;;;;;4958160;28;20465;-86
2021/12/19 08:08:37;;;;;;;11.43;4.73;;;6.20;97.30;;;;;;4957087;28;20724;-86
2021/12/19 08:13:47;;;;;;;9.73;4.37;;;6.20;97.30;;;;;;4966952;28;20218;-86
2021/12/19 08:16:13;;;;;;;9.33;4.53;;;6.20;97.30;;;;;;4972525;28;20447;-86
2021/12/19 08:18:38;;;;;;;10.83;4.73;;;6.20;97.30;;;;;;4959181;28;20195;-86
2021/12/19 08:21:04;;;;;;;14.50;5.40;;;6.20;97.30;;;;;;4945963;28;20499;-87
2021/12/19 08:23:30;;;;;;;9.57;4.93;;;6.20;97.30;;;;;;4959705;28;20615;-87
2021/12/19 08:25:58;;;;;;;12.03;5.13;;;6.20;97.30;;;;;;4948358;28;20256;-85
2021/12/19 08:28:23;;;;;;;12.07;4.13;;;6.20;97.30;;;;;;4970460;28;20183;-85
2021/12/19 08:30:50;;;;;;;16.83;5.10;;;6.20;97.30;;;;;;4959441;28;20472;-86
2021/12/19 08:33:16;;;;;;;8.83;4.40;;;6.20;97.30;;;;;;4956133;28;20258;-86
2021/12/19 08:35:41;;;;;;;15.00;4.93;;;6.20;97.30;;;;;;4955466;28;20521;-85
2021/12/19 08:38:07;;;;;;;9.80;4.27;;;6.20;97.30;;;;;;4960165;28;20183;-86
2021/12/19 08:40:32;;;;;;;9.37;4.00;;;6.20;97.30;;;;;;4955921;28;20190;-86
2021/12/19 08:42:58;;;;;;;11.90;4.90;;;6.20;97.30;;;;;;4956830;28;20202;-85
2021/12/19 08:45:24;;;;;;;13.37;4.50;;;6.20;97.30;;;;;;4957196;28;20175;-85
2021/12/19 08:47:50;;;;;;;10.17;3.87;;;6.20;97.30;;;;;;4956858;28;21018;-85
2021/12/19 08:50:16;;;;;;;10.13;4.70;;;6.20;97.30;;;;;;4957793;28;20406;-86
2021/12/19 08:52:42;;;;;;;10.10;4.47;;;6.20;97.30;;;;;;4957625;28;20786;-85
2021/12/19 08:55:09;;;;;;;9.07;3.80;;;6.20;97.30;;;;;;4974914;28;20417;-86
2021/12/19 08:57:35;;;;;;;10.87;4.60;;;6.20;97.30;;;;;;4974130;28;20260;-85
2021/12/19 09:00:02;;;;;;;8.97;3.80;;;6.20;97.30;;;;;;4955856;28;20422;-85
2021/12/19 09:02:28;;;;;;;10.20;4.20;;;6.30;97.30;;;;;;4963756;28;20731;-85
2021/12/19 09:04:53;;;;;;;12.17;5.40;;;6.30;97.30;;;;;;4965528;28;20472;-85
2021/12/19 09:07:19;;;;;;;14.30;4.80;;;6.40;97.30;;;;;;4972446;28;20221;-86
2021/12/19 09:09:45;;;;;;;12.83;4.47;;;6.40;97.30;;;;;;4956173;28;20552;-86
2021/12/19 09:12:12;;;;;;;10.83;4.93;;;6.40;97.30;;;;;;4959668;28;20232;-86
2021/12/19 09:14:38;;;;;;;13.20;4.93;;;6.50;97.30;;;;;;4970972;28;20799;-83
2021/12/19 09:17:03;;;;;;;13.17;6.00;;;6.50;97.30;;;;;;4956760;28;20846;-85
2021/12/19 09:19:29;;;;;;;21.83;5.33;;;6.60;97.30;;;;;;4957538;28;20429;-87
2021/12/19 09:21:55;;;;;;;13.80;4.87;;;6.70;97.30;;;;;;4974123;28;20202;-84
2021/12/19 09:24:21;;;;;;;15.23;5.77;;;6.70;97.30;;;;;;4955228;28;20225;-85
2021/12/19 09:26:46;;;;;;;16.13;6.43;;;6.80;97.30;;;;;;4972760;28;20216;-85
2021/12/19 09:29:12;;;;;;;12.00;6.07;;;6.80;97.30;;;;;;4975146;28;20181;-85
2021/12/19 09:31:37;;;;;;;11.67;4.70;;;6.90;97.30;;;;;;4969738;28;20650;-85
2021/12/19 09:34:03;;;;;;;10.60;5.00;;;6.90;97.30;;;;;;4957420;28;20170;-85
2021/12/19 09:36:29;;;;;;;12.67;5.80;;;6.90;97.30;;;;;;4958096;28;20187;-85
2021/12/19 09:38:55;;;;;;;12.20;5.80;;;6.90;97.30;;;;;;4961638;28;20452;-84
2021/12/19 09:41:29;;;;;;;11.33;5.30;;;6.90;97.30;;;;;;4977056;28;20726;-85
2021/12/19 09:43:58;;;;;;;15.07;5.37;;;7.00;97.30;;;;;;4992500;28;20196;-84
2021/12/19 09:46:28;;;;;;;12.07;5.60;;;7.00;97.30;;;;;;4981464;28;20601;-84
2021/12/19 09:48:53;;;;;;;10.20;4.10;;;7.00;97.30;;;;;;4981747;28;21098;-85
2021/12/19 09:51:19;;;;;;;10.43;5.17;;;6.90;97.30;;;;;;4973979;28;20541;-84
2021/12/19 09:53:45;;;;;;;12.63;5.20;;;6.90;97.30;;;;;;4977990;28;20170;-84
2021/12/19 09:56:13;;;;;;;9.40;4.10;;;7.00;97.30;;;;;;4977525;28;20182;-84
2021/12/19 09:58:40;;;;;;;11.60;3.97;;;7.00;97.30;;;;;;4990375;28;20421;-85
2021/12/19 10:01:08;;;;;;;12.00;4.83;;;7.00;97.30;;;;;;4995316;28;20441;-85
2021/12/19 10:03:35;;;;;;;11.63;5.60;;;7.00;97.30;;;;;;4999127;28;20594;-84
2021/12/19 10:06:26;;;;;;;15.30;5.77;;;7.10;97.30;;;;;;4980009;28;20878;-84
2021/12/19 10:09:13;;;;;;;11.63;5.10;;;7.10;97.30;;;;;;4979788;28;20927;-84
2021/12/19 10:14:36;;;;;;;10.47;4.73;;;7.10;97.30;;;;;;4997530;28;20827;-85
2021/12/19 10:17:07;;;;;;;16.07;4.90;;;7.10;97.30;;;;;;4982370;28;20504;-84
2021/12/19 10:20:03;;;;;;;14.67;4.90;;;7.10;97.30;;;;;;4981167;28;20474;-84
2021/12/19 10:22:40;;;;;;;8.10;5.00;;;7.10;97.30;;;;;;4965157;28;20441;-85
2021/12/19 10:25:09;;;;;;;15.53;6.27;;;7.10;97.30;;;;;;4978417;28;20444;-85
2021/12/19 10:27:40;;;;;;;15.53;5.17;;;7.20;97.30;;;;;;4977240;28;20842;-84
2021/12/19 10:30:19;;;;;;;15.10;7.00;;;7.20;97.30;;;;;;4995116;28;20424;-84
2021/12/19 10:33:00;;;;;;;13.13;5.63;;;7.20;97.30;;;;;;4977779;28;20989;-86
2021/12/19 10:35:47;;;;;;;15.87;6.20;;;7.10;97.30;;;;;;4979313;28;20413;-85
2021/12/19 10:38:19;;;;;;;13.77;4.70;;;7.20;97.30;;;;;;4997311;28;20413;-84
2021/12/19 10:40:46;;;;;;;11.93;4.57;;;7.20;97.30;;;;;;4980020;28;20499;-84
2021/12/19 10:43:16;;;;;;;11.33;6.57;;;7.20;97.30;;;;;;4979287;28;20492;-84
2021/12/19 10:45:52;;;;;;;10.10;4.80;;;7.20;97.30;;;;;;4975520;28;20449;-84
2021/12/19 10:48:23;;;;;;;13.27;5.23;;;7.20;97.30;;;;;;4994033;28;20416;-83
2021/12/19 10:51:08;;;;;;;12.70;5.20;;;7.20;97.30;;;;;;4976092;28;20925;-85
2021/12/19 10:53:43;;;;;;;16.20;5.43;;;7.20;97.30;;;;;;4956834;28;20421;-84
2021/12/19 10:56:14;;;;;;;11.37;5.50;;;7.20;97.30;;;;;;4959464;28;20428;-85
2021/12/19 10:58:45;;;;;;;12.23;4.90;;;7.20;97.30;;;;;;4975880;28;20716;-84
2021/12/19 11:01:30;;;;;;;10.87;4.47;;;7.20;97.30;;;;;;4976622;28;20445;-85
2021/12/19 11:04:02;;;;;;;10.87;5.50;;;7.20;97.30;;;;;;4976206;28;20432;-84
2021/12/19 11:06:29;;;;;;;13.13;7.00;;;7.20;97.30;;;;;;4956918;28;20468;-85
2021/12/19 11:08:55;;;;;;;10.17;4.43;;;7.20;97.30;;;;;;4977185;28;20520;-83
2021/12/19 11:11:54;;;;;;;8.07;4.50;;;7.20;97.30;;;;;;4976760;28;20807;-84
2021/12/19 11:14:39;;;;;;;6.70;4.10;;;7.30;97.30;;;;;;4995103;28;20413;-85
2021/12/19 11:17:14;;;;;;;7.80;4.40;;;7.30;97.30;;;;;;4994928;28;20413;-83
2021/12/19 11:19:41;;;;;;;7.90;3.60;;;7.40;97.30;;;;;;4966254;28;20429;-84
2021/12/19 11:22:08;;;;;;;7.97;3.73;;;7.40;97.30;;;;;;4965584;28;20442;-85
2021/12/19 11:24:33;;;;;;;5.63;3.50;;;7.50;97.30;;;;;;4990310;28;20524;-85
2021/12/19 11:27:01;;;;;;;7.03;3.53;;;7.50;97.30;;;;;;4993152;28;20547;-85
2021/12/19 11:29:28;;;;;;;11.90;3.80;;;7.50;97.30;;;;;;4976100;28;20181;-86
2021/12/19 11:32:00;;;;;;;8.70;4.10;;;7.60;97.30;;;;;;4975617;28;20804;-84
2021/12/19 11:34:44;;;;;;;8.60;4.27;;;7.60;97.30;;;;;;4976345;28;20425;-86
2021/12/19 11:37:12;;;;;;;7.90;3.80;;;7.60;97.30;;;;;;4992412;28;20429;-83
2021/12/19 11:39:48;;;;;;;8.43;5.20;;;7.60;97.30;;;;;;4975949;28;20467;-83
2021/12/19 11:42:17;;;;;;;7.03;2.90;;;7.60;97.30;;;;;;4975533;28;20884;-85
2021/12/19 11:47:45;;;;;;;8.40;4.83;;;7.50;97.30;;;;;;4989714;28;20460;-86
2021/12/19 11:50:25;;;;;;;28.93;11.00;;;7.60;97.30;;;;;;4971161;28;20424;-85
2021/12/19 11:53:11;;;;;;;36.00;12.60;;;7.60;97.30;;;;;;4977257;28;20451;-84
2021/12/19 11:55:47;;;;;;;15.20;6.87;;;7.60;97.30;;;;;;4964720;28;20414;-84
2021/12/19 11:58:14;;;;;;;5.67;3.60;;;7.60;97.30;;;;;;4986143;28;20571;-85
2021/12/19 12:00:47;;;;;;;21.33;7.07;;;7.70;97.30;;;;;;4972299;28;20444;-84
2021/12/19 12:03:12;;;;;;;11.30;5.37;;;7.70;97.30;;;;;;4973482;28;20477;-81
2021/12/19 12:05:44;;;;;;;23.90;9.73;;;7.70;97.30;;;;;;4976168;28;20401;-84
2021/12/19 12:08:12;;;;;;;23.87;10.77;;;7.70;97.30;;;;;;4990770;28;20209;-84
2021/12/19 12:10:54;;;;;;;10.27;5.27;;;7.60;97.30;;;;;;4965906;28;20647;-85
2021/12/19 12:13:24;;;;;;;7.70;3.03;;;7.50;97.30;;;;;;4961860;28;20449;-84
2021/12/19 12:15:52;;;;;;;11.43;5.00;;;7.50;97.30;;;;;;4967809;28;20418;-85
2021/12/19 12:18:35;;;;;;;14.43;6.67;;;7.60;97.30;;;;;;4964510;28;20418;-84
2021/12/19 12:21:27;;;;;;;10.90;4.50;;;7.70;97.30;;;;;;4967553;28;20533;-85
2021/12/19 12:23:55;;;;;;;8.10;3.93;;;7.60;97.30;;;;;;4959925;28;20414;-85
2021/12/19 12:26:42;;;;;;;5.80;3.90;;;7.60;97.30;;;;;;4972370;28;20453;-85
2021/12/19 12:29:09;;;;;;;4.23;3.97;;;7.60;97.30;;;;;;4972220;28;20394;-85
2021/12/19 12:31:36;;;;;;;4.90;2.80;;;7.50;97.30;;;;;;4955275;28;20434;-84
2021/12/19 12:34:06;;;;;;;3.37;2.13;;;7.50;97.30;;;;;;4956248;28;20421;-85
2021/12/19 12:36:32;;;;;;;4.60;2.30;;;7.50;97.30;;;;;;4975145;28;20415;-83
2021/12/19 12:38:58;;;;;;;5.07;2.97;;;7.50;97.30;;;;;;4976211;28;20508;-86
2021/12/19 12:42:11;;;;;;;6.60;3.37;;;7.50;97.30;;;;;;4955964;28;20206;-86
2021/12/19 12:44:20;;;;;;;3.50;2.30;;;7.40;97.30;;;;;;4973765;28;20221;-85
2021/12/19 12:46:46;;;;;;;8.50;2.77;;;7.30;97.30;;;;;;4974237;28;20530;-85
2021/12/19 12:49:16;;;;;;;5.63;2.67;;;7.30;97.30;;;;;;4974264;28;20947;-85
2021/12/19 12:51:48;;;;;;;5.27;3.70;;;7.20;97.30;;;;;;4974177;28;20198;-85
2021/12/19 12:54:18;;;;;;;6.20;2.20;;;7.20;97.30;;;;;;4973891;28;20449;-84
2021/12/19 12:56:52;;;;;;;3.03;2.07;;;7.20;97.30;;;;;;4977696;28;20428;-85
2021/12/19 12:59:23;;;;;;;5.00;2.20;;;7.10;97.30;;;;;;4991614;28;20425;-85
2021/12/19 13:02:06;;;;;;;11.73;5.90;;;7.10;97.30;;;;;;4965613;28;20474;-85
2021/12/19 13:04:32;;;;;;;8.80;3.60;;;7.10;97.30;;;;;;4948447;28;20480;-85
2021/12/19 13:07:27;;;;;;;2.97;2.30;;;7.10;97.30;;;;;;4951508;28;20568;-85
2021/12/19 13:10:00;;;;;;;7.00;2.70;;;7.00;97.30;;;;;;4967790;28;20422;-85
2021/12/19 13:12:34;;;;;;;4.97;3.70;;;7.00;97.30;;;;;;4956951;28;20453;-83
2021/12/19 13:15:04;;;;;;;3.30;2.20;;;7.00;97.30;;;;;;4960673;28;20837;-86
2021/12/19 13:17:32;;;;;;;5.40;2.87;;;6.90;97.30;;;;;;4977093;28;20445;-85
2021/12/19 13:20:03;;;;;;;7.40;2.60;;;6.90;97.30;;;;;;4960184;28;20499;-84
2021/12/19 13:22:46;;;;;;;3.50;2.60;;;7.00;97.30;;;;;;4960900;28;20961;-86
2021/12/19 13:25:16;;;;;;;4.20;3.17;;;7.00;97.30;;;;;;4977759;28;20417;-84
2021/12/19 13:27:51;;;;;;;5.57;3.90;;;7.00;97.30;;;;;;4977042;28;20460;-87
2021/12/19 13:30:27;;;;;;;3.57;2.97;;;7.00;97.30;;;;;;4960820;28;20475;-85
2021/12/19 13:33:00;;;;;;;7.10;2.00;;;7.00;97.30;;;;;;4961660;28;20496;-84
2021/12/19 13:35:30;;;;;;;3.87;2.13;;;7.00;97.30;;;;;;4976461;28;20480;-83
2021/12/19 13:38:04;;;;;;;3.10;1.80;;;7.10;97.30;;;;;;4978636;28;20449;-85
2021/12/19 13:40:33;;;;;;;4.17;2.33;;;7.10;97.30;;;;;;4959208;28;20892;-86
2021/12/19 13:43:08;;;;;;;2.93;2.30;;;7.10;97.30;;;;;;4977007;28;20941;-85
2021/12/19 13:45:47;;;;;;;2.60;2.00;;;7.10;97.30;;;;;;4960555;28;20421;-85
2021/12/19 13:48:21;;;;;;;2.33;1.73;;;7.20;97.30;;;;;;4961032;28;20457;-84
2021/12/19 13:50:57;;;;;;;7.73;2.57;;;7.20;97.30;;;;;;4961036;28;20957;-84
2021/12/19 13:53:25;;;;;;;10.70;2.87;;;7.20;97.30;;;;;;4957885;28;20421;-86
2021/12/19 13:55:54;;;;;;;2.63;1.83;;;7.20;97.30;;;;;;4959065;28;20425;-85
2021/12/19 13:58:21;;;;;;;3.43;2.40;;;7.10;97.30;;;;;;4958886;28;20414;-84
2021/12/19 14:00:52;;;;;;;7.60;3.07;;;7.10;97.30;;;;;;4957151;28;20469;-85
2021/12/19 14:03:36;;;;;;;5.13;2.33;;;7.00;97.30;;;;;;4975541;28;20462;-85
2021/12/19 14:06:02;;;;;;;6.83;2.70;;;7.00;97.30;;;;;;4959508;28;20422;-85
2021/12/19 14:08:30;;;;;;;3.50;2.10;;;6.90;97.30;;;;;;4975926;28;20421;-85
2021/12/19 14:11:19;;;;;;;5.50;2.57;;;6.90;97.30;;;;;;4958486;28;20195;-84